»·PEaware :: FDX5400 KONT-KSFO

FDX5400 :: KONT-KSFO

FLIGHT INFORMATION

Flight Status: Arrived
Operator:
Federal Express
More flights by this operator :: More flights under this callsign
Pilot: Sean R. (2202)
Aircraft: Unknown
(B77F)
More flights by this aircraft type
Origin: KONT Ontario Intl
United States
Destination: KSFO San Francisco Intl
United States
More flights between these airports :: More routes between these airports
Route: +POM7 GMN COREZ MAKRS BSR BSR2
File this flight plan on PilotEdge
Remarks:
Altitude:
(Current/Filed)
30,000ft
Speed:
(Current/Filed)
400kts
Departed: 20-Feb-15 03:01 PM
Arrived: 20-Feb-15 03:58 PM
Distance/Time
Traveled:
316nm/0:57
Distance/Time
To Go:
Arrived

Flight Plot

Page will automatically refresh every two minutes.

Flight plan parsing failed; only flown route is shown


Map Options




Map Legend


Flown Route
Filed Route
Departure Airport
Arrival Airport
Navaid (VOR, NDB)
Fix

Horizontal Profiles

Position Reports

Time Latitude Longitude Heading Altitude Ground
Speed
20-Feb-15 14:30 34.053148 -117.613840 179 960ft 0kts
20-Feb-15 14:31 34.053148 -117.613840 179 960ft 0kts
20-Feb-15 14:32 34.053148 -117.613840 179 960ft 0kts
20-Feb-15 14:33 34.053148 -117.613840 179 960ft 0kts
20-Feb-15 14:34 34.053148 -117.613840 179 960ft 0kts
20-Feb-15 14:35 34.053148 -117.613840 179 960ft 0kts
20-Feb-15 14:36 34.053148 -117.613840 179 960ft 0kts
20-Feb-15 14:37 34.053454 -117.613847 178 960ft 2kts
20-Feb-15 14:38 34.053787 -117.613966 100 960ft 0kts
20-Feb-15 14:39 34.053787 -117.613966 100 960ft 0kts
20-Feb-15 14:40 34.053787 -117.613966 100 960ft 0kts
20-Feb-15 14:41 34.053787 -117.613966 100 960ft 0kts
20-Feb-15 14:42 34.053787 -117.613966 100 960ft 0kts
20-Feb-15 14:43 34.053787 -117.613966 100 960ft 0kts
20-Feb-15 14:44 34.053787 -117.613966 100 960ft 0kts
20-Feb-15 14:45 34.053787 -117.613966 100 960ft 0kts
20-Feb-15 14:46 34.053787 -117.613966 100 960ft 0kts
20-Feb-15 14:47 34.053837 -117.608514 90 960ft 40kts
20-Feb-15 14:48 34.053882 -117.595408 90 960ft 30kts
20-Feb-15 14:49 34.053917 -117.587056 91 960ft 21kts
20-Feb-15 14:50 34.053914 -117.583206 87 960ft 3kts
20-Feb-15 14:51 34.054118 -117.582822 15 960ft 0kts
20-Feb-15 14:52 34.054118 -117.582822 15 960ft 0kts
20-Feb-15 14:53 34.054118 -117.582822 15 960ft 0kts
20-Feb-15 14:54 34.054929 -117.584718 269 960ft 36kts
20-Feb-15 14:55 34.054616 -117.639887 269 2645ft 245kts
20-Feb-15 14:56 34.053472 -117.724940 271 7240ft 277kts
20-Feb-15 14:57 34.089263 -117.802220 309 10619ft 319kts
20-Feb-15 14:58 34.148807 -117.890065 309 12264ft 389kts
20-Feb-15 14:59 34.211704 -117.982275 309 15444ft 405kts
20-Feb-15 15:00 34.276507 -118.077505 309 18199ft 423kts
20-Feb-15 15:01 34.343829 -118.176158 309 20710ft 440kts
20-Feb-15 15:02 34.415569 -118.282053 309 23164ft 455kts
20-Feb-15 15:03 34.487276 -118.388316 309 25366ft 470kts
20-Feb-15 15:04 34.558079 -118.493561 309 27288ft 485kts
20-Feb-15 15:05 34.632651 -118.604715 309 28784ft 508kts
20-Feb-15 15:06 34.708349 -118.718022 310 30004ft 496kts
20-Feb-15 15:07 34.787737 -118.836522 312 30080ft 488kts
20-Feb-15 15:08 34.886787 -118.929069 326 30069ft 487kts
20-Feb-15 15:09 34.993165 -119.016782 326 30056ft 490kts
20-Feb-15 15:10 35.100709 -119.105382 325 30060ft 491kts
20-Feb-15 15:11 35.208188 -119.193664 325 30079ft 490kts
20-Feb-15 15:12 35.317537 -119.284390 325 30060ft 487kts
20-Feb-15 15:13 35.410861 -119.361927 325 30058ft 489kts
20-Feb-15 15:14 35.517290 -119.460051 312 30046ft 487kts
20-Feb-15 15:15 35.576264 -119.584362 286 30056ft 489kts
20-Feb-15 15:16 35.596488 -119.747982 280 30076ft 489kts
20-Feb-15 15:17 35.619699 -119.909274 281 30068ft 497kts
20-Feb-15 15:18 35.643544 -120.073328 281 30050ft 503kts
20-Feb-15 15:19 35.666271 -120.228270 280 30051ft 509kts
20-Feb-15 15:20 35.701721 -120.390941 296 30056ft 501kts
20-Feb-15 15:21 35.757547 -120.535389 296 30050ft 501kts
20-Feb-15 15:22 35.812847 -120.677902 296 30050ft 501kts
20-Feb-15 15:23 35.869955 -120.825676 296 30049ft 500kts
20-Feb-15 15:24 35.925128 -120.969111 296 27614ft 483kts
20-Feb-15 15:25 35.977106 -121.104782 296 25253ft 466kts
20-Feb-15 15:26 36.029945 -121.242041 295 22772ft 450kts
20-Feb-15 15:27 36.079653 -121.372843 295 20327ft 436kts
20-Feb-15 15:28 36.129473 -121.504684 295 19874ft 424kts
20-Feb-15 15:29 36.178931 -121.627124 306 17930ft 412kts
20-Feb-15 15:30 36.263425 -121.713215 325 16471ft 399kts
20-Feb-15 15:31 36.349615 -121.787999 324 15022ft 391kts
20-Feb-15 15:32 36.436532 -121.863622 326 13528ft 383kts
20-Feb-15 15:33 36.533969 -121.902782 346 11471ft 376kts
20-Feb-15 15:34 36.586879 -121.918328 346 10177ft 372kts
20-Feb-15 15:35 36.676153 -121.944414 345 9990ft 319kts
20-Feb-15 15:36 36.761323 -121.969015 347 9998ft 329kts
20-Feb-15 15:37 36.848010 -121.991621 347 9998ft 321kts
20-Feb-15 15:38 36.932556 -122.013756 347 9999ft 322kts
20-Feb-15 15:39 37.015383 -122.035454 347 10001ft 319kts
20-Feb-15 15:40 37.098006 -122.057206 347 10008ft 313kts
20-Feb-15 15:41 37.180056 -122.078815 348 10014ft 312kts
20-Feb-15 15:42 37.259791 -122.099861 348 10018ft 312kts
20-Feb-15 15:43 37.329372 -122.117906 348 7800ft 255kts
20-Feb-15 15:44 37.393816 -122.134957 348 5457ft 236kts
20-Feb-15 15:45 37.449882 -122.149849 348 4061ft 215kts
20-Feb-15 15:46 37.504967 -122.141211 11 3969ft 191kts
20-Feb-15 15:47 37.536815 -122.175072 296 3162ft 167kts
20-Feb-15 15:48 37.554924 -122.222791 297 2372ft 162kts
20-Feb-15 15:49 37.572732 -122.265709 298 1569ft 146kts
20-Feb-15 15:50 37.588232 -122.302579 299 956ft 146kts
20-Feb-15 15:51 37.609806 -122.353967 299 145ft 146kts
20-Feb-15 15:52 37.618948 -122.376372 270 30ft 11kts
20-Feb-15 15:53 37.618952 -122.378217 268 30ft 1kts
20-Feb-15 15:54 37.617814 -122.378654 172 30ft 14kts
20-Feb-15 15:55 37.614181 -122.380355 209 30ft 11kts
20-Feb-15 15:56 37.610467 -122.382785 207 30ft 20kts
20-Feb-15 15:57 37.610506 -122.386394 298 30ft 7kts
20-Feb-15 15:58 37.610458 -122.387547 208 30ft 6kts
20-Feb-15 15:59 37.610257 -122.387685 208 30ft 0kts
20-Feb-15 16:00 37.610257 -122.387685 208 30ft 0kts

Navigation Log

Ident Type
Flight plan parsing failed, navigation log unavailable